Latest Coastal Weather Observations for Low Head

IDV60701

Issued at 11:25 am EST Sunday 20 April 2014 (issued every 10 minutes, with the page automatically refreshed every 10 minutes)

About coastal observations | Map of coastal stations | Coastal observations for VIC | Marine services | Other Formats
Station Details ID: 091293 Name: LOW HEAD Lat: -41.05 Lon: 146.79 Height: 3.0 m
Data from the previous 72 hours. | See also: Recent months at Low Head
Date/Time
EST
Temp

°C
Wind Pressure Rain
since 9am
mm
Weather Cloud Vis
km
Sea
Height
m
Swell
Dir
 
Speed
knots
Gust
knots
hPa Trend Height
m
Period
s
Dir
20/11:00am 14.9 W 17 20 1013.0 - 0.0 - - - - - - -
20/10:30am 14.6 W 10 13 1013.1 - 0.0 - - - - - - -
20/10:00am 14.0 W 11 14 1013.5 - 0.0 - - - - - - -
20/09:30am 13.3 W 7 9 1013.6 - 0.0 - - - - - - -
20/09:00am 11.9 S 5 6 1013.6 F 0.0 Distant precip. Mostly cloudy 20 <0.5 0.5 3 NW
20/08:30am 11.5 S 7 9 1013.8 - 0.0 - - - - - - -
20/08:00am 10.5 S 6 7 1013.7 - 0.0 - - - - - - -
20/07:30am 10.5 S 7 8 1013.5 - 0.0 - - - - - - -
20/07:00am 11.2 S 7 8 1013.4 - 0.0 - - - - - - -
20/06:30am 11.4 SSW 8 10 1013.4 - 0.0 - - - - - - -
20/06:00am 11.8 SSW 8 9 1013.4 - 0.0 - - - - - - -
20/05:30am 12.0 WSW 7 9 1013.4 - 0.0 - - - - - - -
20/05:00am 11.5 SW 6 8 1013.4 - 0.0 - - - - - - -
20/04:30am 11.2 SW 7 9 1013.3 - 0.0 - - - - - - -
20/04:00am 11.6 WSW 9 11 1013.4 - 0.0 - - - - - - -
20/03:30am 11.8 WSW 10 11 1013.5 - 0.0 - - - - - - -
20/03:00am 11.7 WSW 11 14 1013.6 - 0.0 - - - - - - -
20/02:30am 11.3 WSW 9 11 1013.6 - 0.0 - - - - - - -
20/02:00am 11.2 WSW 11 13 1014.0 - 0.0 - - - - - - -
20/01:30am 11.0 WSW 12 13 1014.4 - 0.0 - - - - - - -
20/01:00am 11.0 WSW 13 15 1014.4 - 0.0 - - - - - - -
20/12:30am 11.1 WSW 13 15 1014.5 - 0.0 - - - - - - -
20/12:00am 11.3 WSW 12 15 1014.5 - 0.0 - - - - - - -
 
Date/Time
EST
Temp

°C
Wind Pressure Rain
since 9am
mm
Weather Cloud Vis
km
Sea
Height
m
Swell
Dir
 
Speed
knots
Gust
knots
hPa Trend Height
m
Period
s
Dir
19/11:30pm 10.8 SW 11 13 1014.5 - 0.0 - - - - - - -
19/11:00pm 11.1 WSW 11 13 1014.8 - 0.0 - - - - - - -
19/10:30pm 11.4 WSW 11 13 1015.0 - 0.0 - - - - - - -
19/10:00pm 11.6 WSW 11 14 1015.1 - 0.0 - - - - - - -
19/09:30pm 12.2 WSW 13 15 1015.2 - 0.0 - - - - - - -
19/09:00pm 12.5 WSW 13 15 1015.3 - 0.0 - - - - - - -
19/08:30pm 12.8 W 14 17 1015.2 - 0.0 - - - - - - -
19/08:00pm 12.8 W 16 18 1015.1 - 0.0 - - - - - - -
19/07:30pm 13.1 WSW 15 18 1015.0 - 0.0 - - - - - - -
19/07:00pm 13.6 WSW 16 19 1015.0 - 0.0 - - - - - - -
19/06:30pm 13.6 WSW 14 16 1014.8 - 0.0 - - - - - - -
19/06:00pm 14.2 W 14 17 1014.8 - 0.0 - - - - - - -
19/05:30pm 14.4 W 15 18 1014.7 - 0.0 - - - - - - -
19/05:00pm 14.5 W 15 19 1014.7 - 0.0 - - - - - - -
19/04:30pm 14.7 W 13 17 1014.8 - 0.0 - - - - - - -
19/04:00pm 15.0 W 14 17 1014.9 - 0.0 - - - - - - -
19/03:30pm 15.1 W 12 14 1015.0 - 0.0 - - - - - - -
19/03:00pm 15.9 WNW 10 13 1015.1 R 0.0 Fine Partly cloudy 25 1 0.5 3 NW
19/02:30pm 16.1 WNW 10 13 1015.2 - 0.0 - - - - - - -
19/02:00pm 15.7 W 10 12 1015.2 - 0.0 - - - - - - -
19/01:30pm 16.2 NW 10 15 1015.4 - 0.0 - - - - - - -
19/01:00pm 14.6 W 12 16 1015.6 - 0.0 - - - - - - -
19/12:30pm 15.3 WNW 11 15 1016.0 - 0.0 - - - - - - -
19/12:00pm 14.4 W 11 13 1016.3 - 0.0 - - - - - - -
19/11:30am 14.0 W 12 13 1016.6 - 0.0 - - - - - - -
19/11:00am 13.8 W 11 14 1016.6 - 0.0 - - - - - - -
19/10:30am 13.3 W 11 14 1016.7 - 0.0 - - - - - - -
19/10:00am 13.1 W 10 13 1016.6 - 0.0 - - - - - - -
19/09:30am 12.5 WSW 9 11 1016.6 - 0.0 - - - - - - -
19/09:00am 12.0 SSW 5 9 1016.6 R 1.8 Fine Mostly clear 25 <0.5 0.5 3 NW
19/08:30am 11.3 WSW 11 13 1016.3 - 1.8 - - - - - - -
19/08:00am 10.8 SSW 11 18 1016.4 - 1.8 - - - - - - -
19/07:30am 11.3 WSW 16 18 1015.8 - 1.8 - - - - - - -
19/07:00am 11.2 WSW 15 17 1015.6 - 1.8 - - - - - - -
19/06:30am 11.3 WSW 16 19 1015.3 - 1.8 - - - - - - -
19/06:00am 11.1 WSW 15 18 1015.3 R 1.8 Fine Mostly clear 25 1 1.0 3 NW
19/05:30am 11.1 WSW 13 17 1015.1 - 1.8 - - - - - - -
19/05:00am 11.1 SW 11 15 1015.1 - 1.8 - - - - - - -
19/04:30am 10.9 SW 12 14 1014.9 - 1.8 - - - - - - -
19/04:00am 11.6 WSW 17 19 1014.8 - 1.8 - - - - - - -
19/03:30am 11.6 WSW 14 16 1014.8 - 1.8 - - - - - - -
19/03:00am 11.6 WSW 14 16 1014.7 - 1.8 - - - - - - -
19/02:30am 12.0 WSW 14 17 1014.7 - 1.8 - - - - - - -
19/02:00am 12.0 WSW 16 17 1014.9 - 1.8 - - - - - - -
19/01:30am 11.8 WSW 14 18 1014.9 - 1.8 - - - - - - -
19/01:00am 11.4 WSW 11 13 1014.9 - 1.8 - - - - - - -
19/12:30am 11.5 SSW 10 12 1014.8 - 1.8 - - - - - - -
19/12:00am 11.8 WSW 11 13 1014.7 - 1.8 - - - - - - -
 
Date/Time
EST
Temp

°C
Wind Pressure Rain
since 9am
mm
Weather Cloud Vis
km
Sea
Height
m
Swell
Dir
 
Speed
knots
Gust
knots
hPa Trend Height
m
Period
s
Dir
18/11:30pm 11.7 S 6 9 1015.0 - 1.8 - - - - - - -
18/11:00pm 12.3 SW 13 16 1014.6 - 1.8 - - - - - - -
18/10:30pm 12.9 SW 20 24 1014.1 - 1.8 - - - - - - -
18/10:00pm 13.0 SW 17 22 1014.3 - 1.8 - - - - - - -
18/09:30pm 13.2 WSW 18 22 1014.0 - 1.8 - - - - - - -
18/09:00pm 13.4 WSW 21 25 1013.6 - 1.8 - - - - - - -
18/08:30pm 13.5 WSW 25 30 1013.1 - 1.8 - - - - - - -
18/08:00pm 13.7 WSW 20 23 1013.1 - 1.8 - - - - - - -
18/07:30pm 13.6 WSW 18 20 1013.0 - 1.8 - - - - - - -
18/07:00pm 13.8 WSW 22 25 1012.6 - 1.8 - - - - - - -
18/06:30pm 14.1 WSW 23 27 1012.2 - 1.8 - - - - - - -
18/06:00pm 14.7 WSW 23 26 1012.0 - 1.8 - - - - - - -
18/05:30pm 15.0 WSW 21 25 1011.4 - 1.8 - - - - - - -
18/05:00pm 15.3 SW 21 26 1010.9 - 1.8 - - - - - - -
18/04:41pm 15.8 WSW 16 31 1010.6 - 1.8 - - - - - - -
18/04:30pm 15.9 WSW 20 25 1010.5 - 1.8 - - - - - - -
18/04:00pm 16.4 WSW 20 25 1010.0 - 1.8 - - - - - - -
18/03:30pm 16.3 WSW 24 30 1009.4 - 1.8 - - - - - - -
18/03:00pm 16.3 W 26 31 1008.9 R 1.8 Fine Mostly clear 20 1 1.0 3 NW
18/02:30pm 16.4 WSW 25 31 1008.7 - 1.8 - - - - - - -
18/02:00pm 15.9 SW 18 23 1008.7 - 1.8 - - - - - - -
18/01:30pm 15.4 WSW 20 26 1008.5 - 1.8 - - - - - - -
18/01:00pm 15.3 WSW 24 28 1008.3 - 1.8 - - - - - - -
18/12:30pm 14.4 W 14 21 1008.3 - 1.8 - - - - - - -
18/12:00pm 14.3 WNW 12 17 1009.2 - 1.8 - - - - - - -
18/11:30am 14.2 SSE 12 16 1008.1 - 1.6 - - - - - - -
18/11:00am 14.5 SW 19 25 1009.5 - 1.6 - - - - - - -
18/10:48am 14.5 SW 20 30 1009.4 - 1.6 - - - - - - -
18/10:30am 14.3 SW 27 37 1009.3 - 1.6 - - - - - - -
18/10:26am 14.5 WSW 28 37 1009.3 - 1.6 - - - - - - -
18/10:15am 14.5 W 26 33 1008.9 - 1.6 - - - - - - -
18/10:00am 13.5 WNW 25 37 1009.1 - 0.6 - - - - - - -
18/09:58am 15.6 WNW 23 36 1009.3 - 0.2 - - - - - - -
18/09:30am 17.2 WNW 20 25 1009.1 - 0.0 - - - - - - -
18/09:00am 17.3 W 19 22 1009.5 F 0.4 Showers Mostly cloudy 20 1 1.0 3 NW
18/08:30am 16.6 WNW 20 27 1009.9 - 0.4 - - - - - - -
18/08:22am 16.7 WNW 21 27 1010.0 - 0.4 - - - - - - -
18/08:00am 17.3 N 18 21 1010.1 - 0.2 - - - - - - -
18/07:30am 17.2 N 18 21 1010.3 - 0.2 - - - - - - -
18/07:00am 17.2 N 16 19 1010.6 - 0.2 - - - - - - -
18/06:30am 17.0 N 16 18 1010.7 - 0.2 - - - - - - -
18/06:00am 17.2 N 17 19 1010.9 F 0.2 Fine Mostly cloudy 20 <0.5 0.5 3 NE
18/05:30am 17.1 N 17 19 1011.3 - 0.2 - - - - - - -
18/05:00am 17.0 NNW 16 18 1012.1 - 0.2 - - - - - - -
18/04:30am 16.8 N 15 17 1012.3 - 0.2 - - - - - - -
18/04:00am 16.8 NNW 14 17 1012.7 - 0.2 - - - - - - -
18/03:30am 16.9 NNW 14 16 1013.1 - 0.2 - - - - - - -
18/03:00am 16.8 NNW 13 16 1013.5 - 0.2 - - - - - - -
18/02:30am 16.8 NNW 14 15 1014.2 - 0.2 - - - - - - -
18/02:00am 16.7 NNW 12 14 1014.5 - 0.2 - - - - - - -
18/01:30am 16.8 NNW 9 12 1014.9 - 0.2 - - - - - - -
18/01:00am 16.6 N 8 10 1015.2 - 0.2 - - - - - - -
18/12:30am 16.6 N 7 8 1015.4 - 0.2 - - - - - - -
18/12:00am 16.5 NNW 6 8 1015.7 - 0.2 - - - - - - -
 
Date/Time
EST
Temp

°C
Wind Pressure Rain
since 9am
mm
Weather Cloud Vis
km
Sea
Height
m
Swell
Dir
 
Speed
knots
Gust
knots
hPa Trend Height
m
Period
s
Dir
17/11:30pm 16.5 NW 9 11 1016.4 - 0.2 - - - - - - -
17/11:00pm 16.5 NNW 8 9 1016.6 - 0.2 - - - - - - -
17/10:30pm 16.7 NNW 10 12 1017.1 - 0.2 - - - - - - -
17/10:00pm 16.8 NNW 12 14 1017.5 - 0.2 - - - - - - -
17/09:30pm 17.0 N 11 13 1017.7 - 0.2 - - - - - - -
17/09:00pm 17.2 N 9 11 1017.8 - 0.0 - - - - - - -
17/08:30pm 16.9 N 9 11 1018.0 - 0.0 - - - - - - -
17/08:00pm 16.9 N 10 12 1018.0 - 0.0 - - - - - - -
17/07:30pm 16.8 N 10 12 1018.0 - 0.0 - - - - - - -
17/07:00pm 17.0 N 10 12 1018.0 - 0.0 - - - - - - -
17/06:30pm 17.0 N 11 12 1018.1 - 0.0 - - - - - - -
17/06:00pm 17.1 N 10 12 1018.2 - 0.0 - - - - - - -
17/05:30pm 17.3 N 11 12 1018.2 - 0.0 - - - - - - -
17/05:00pm 17.4 NNE 11 13 1018.1 - 0.0 - - - - - - -
17/04:30pm 17.6 N 11 13 1018.3 - 0.0 - - - - - - -
17/04:00pm 17.7 NNE 9 11 1018.6 - 0.0 - - - - - - -
17/03:30pm 17.4 NE 10 12 1018.9 - 0.0 - - - - - - -
17/03:00pm 17.9 NE 10 12 1019.1 R 0.0 Fine Partly cloudy 25 <0.5 0.3 3 -
17/02:30pm 18.1 NE 10 12 1019.4 - 0.0 - - - - - - -
17/02:00pm 18.0 NE 11 13 1019.5 - 0.0 - - - - - - -
17/01:30pm 17.9 NE 11 13 1019.6 - 0.0 - - - - - - -
17/01:00pm 17.9 ENE 12 14 1020.0 - 0.0 - - - - - - -
17/12:30pm 17.2 ENE 13 14 1020.3 - 0.0 - - - - - - -
17/12:00pm 17.6 ENE 11 13 1020.7 - 0.0 - - - - - - -
17/11:30am 17.2 ENE 9 12 1020.8 - 0.0 - - - - - - -

Other Formats:

Comma delimited format used in spreadsheet applications
http://www.bom.gov.au/fwo/IDV60701/IDV60701.95964.axf

JavaScript Object Notation format (JSON) in row-major order
http://www.bom.gov.au/fwo/IDV60701/IDV60701.95964.json